Gao Qiang — VRVQ8 — position and weather

sailwx.info

Track history (hours):
 
Tides and Currents Weather Stations Pressure Air Temp Water Temp Dewpoint Dewpoint Depression Visibility Wind Speed Wind Dir Waves Ship Positions

Gao Qiang

Last reported at 2014-Oct-11 14:16 UTC. Time now 2014-Oct-22 12:24 UTC.
Position S 24°13' W 046°22'.
Warning: this ship's position is 10 days out of date.

Length 186 m; draft 11.6 m.

Type: Cargo ship. MMSI: 477611000.

Date/timePositionNaut miles runAvg speedWind from/ knotsBaromVisibWave heightAir tempDewpointWater temp
2014-Oct-11 14:16S 24°13' W 046°22'7 9.9
2014-Oct-11 13:33S 24°06' W 046°22'7 7.5
2014-Oct-11 12:34S 23°59' W 046°18'3 2.7
2014-Oct-11 11:32S 23°57' W 046°19'0 0.0
2014-Oct-11 10:32S 23°57' W 046°19'0 0.0
2014-Oct-11 09:32S 23°57' W 046°19'0 0.0
2014-Oct-11 08:32S 23°57' W 046°19'0 0.0
2014-Oct-11 07:32S 23°57' W 046°19'0 0.0
2014-Oct-11 06:32S 23°57' W 046°19'0 0.0
2014-Oct-11 05:29S 23°57' W 046°19'0 0.0
2014-Oct-11 04:20S 23°57' W 046°19'0 0.0
2014-Oct-11 03:32S 23°57' W 046°19'0 0.0
2014-Oct-11 02:32S 23°57' W 046°19'0 0.0
2014-Oct-11 01:32S 23°57' W 046°19'0 0.0
2014-Oct-11 00:32S 23°57' W 046°19'0 0.0
2014-Oct-10 23:32S 23°57' W 046°19'0 0.0
2014-Oct-10 22:32S 23°57' W 046°19'0 0.0
2014-Oct-10 21:32S 23°57' W 046°19'0 0.0
2014-Oct-10 20:32S 23°57' W 046°19'0 0.0
2014-Oct-10 19:20S 23°57' W 046°19'0 0.0
2014-Oct-10 18:32S 23°57' W 046°19'0 0.0
2014-Oct-10 17:32S 23°57' W 046°19'0 0.0
2014-Oct-10 16:32S 23°57' W 046°19'0 0.0
2014-Oct-10 15:32S 23°57' W 046°19'0 0.0
2014-Oct-10 14:32S 23°57' W 046°19'0 0.0
2014-Oct-10 13:32S 23°57' W 046°19'0 0.0
2014-Oct-10 12:32S 23°57' W 046°19'0 0.0
2014-Oct-10 11:32S 23°57' W 046°19'0 0.0
2014-Oct-10 10:32S 23°57' W 046°19'0 0.0
2014-Oct-10 09:32S 23°57' W 046°19'0 0.0
2014-Oct-10 08:26S 23°57' W 046°19'0 0.0
2014-Oct-10 07:32S 23°57' W 046°19'0 0.0
2014-Oct-10 06:26S 23°57' W 046°19'0 0.0
2014-Oct-10 05:32S 23°57' W 046°19'0 0.0
2014-Oct-10 04:32S 23°57' W 046°19'0 0.0
2014-Oct-10 03:32S 23°57' W 046°19'0 0.0
2014-Oct-10 02:32S 23°57' W 046°19'0 0.0
2014-Oct-10 01:32S 23°57' W 046°19'0 0.0
2014-Oct-10 00:32S 23°57' W 046°19'0 0.0
2014-Oct-09 23:32S 23°57' W 046°19'0 0.0
2014-Oct-09 22:32S 23°57' W 046°19'1 1.4
2014-Oct-09 21:33S 23°58' W 046°18'4 3.9
2014-Oct-09 20:33S 24°01' W 046°20'0 0.3
2014-Oct-09 19:33S 24°01' W 046°20'0 0.0
2014-Oct-09 18:27S 24°01' W 046°20'0 0.0
2014-Oct-09 17:33S 24°01' W 046°20'0 0.0
2014-Oct-09 16:33S 24°01' W 046°20'0 0.0
2014-Oct-09 15:33S 24°01' W 046°20'3 2.6
2014-Oct-09 14:33S 24°03' W 046°22'8 8.5
2014-Oct-09 13:33S 24°12' W 046°22'6 5.6
2014-Oct-09 12:29S 24°18' W 046°21'  
Track history (hours):
 
Tides and Currents Weather Stations Pressure Air Temp Water Temp Dewpoint Dewpoint Depression Visibility Wind Speed Wind Dir Waves Ship Positions

Gao Qiang

Last reported at 2014-Oct-11 14:16 UTC. Time now 2014-Oct-22 12:24 UTC.
Position S 24°13' W 046°22'.
Warning: this ship's position is 10 days out of date.

Length 186 m; draft 11.6 m.

Type: Cargo ship. MMSI: 477611000.

Date/timePositionNaut miles runAvg speedWind from/ knotsBaromVisibWave heightAir tempDewpointWater temp
2014-Oct-11 14:16S 24°13' W 046°22'7 9.9
2014-Oct-11 13:33S 24°06' W 046°22'7 7.5
2014-Oct-11 12:34S 23°59' W 046°18'3 2.7
2014-Oct-11 11:32S 23°57' W 046°19'0 0.0
2014-Oct-11 10:32S 23°57' W 046°19'0 0.0
2014-Oct-11 09:32S 23°57' W 046°19'0 0.0
2014-Oct-11 08:32S 23°57' W 046°19'0 0.0
2014-Oct-11 07:32S 23°57' W 046°19'0 0.0
2014-Oct-11 06:32S 23°57' W 046°19'0 0.0
2014-Oct-11 05:29S 23°57' W 046°19'0 0.0
2014-Oct-11 04:20S 23°57' W 046°19'0 0.0
2014-Oct-11 03:32S 23°57' W 046°19'0 0.0
2014-Oct-11 02:32S 23°57' W 046°19'0 0.0
2014-Oct-11 01:32S 23°57' W 046°19'0 0.0
2014-Oct-11 00:32S 23°57' W 046°19'0 0.0
2014-Oct-10 23:32S 23°57' W 046°19'0 0.0
2014-Oct-10 22:32S 23°57' W 046°19'0 0.0
2014-Oct-10 21:32S 23°57' W 046°19'0 0.0
2014-Oct-10 20:32S 23°57' W 046°19'0 0.0
2014-Oct-10 19:20S 23°57' W 046°19'0 0.0
2014-Oct-10 18:32S 23°57' W 046°19'0 0.0
2014-Oct-10 17:32S 23°57' W 046°19'0 0.0
2014-Oct-10 16:32S 23°57' W 046°19'0 0.0
2014-Oct-10 15:32S 23°57' W 046°19'0 0.0
2014-Oct-10 14:32S 23°57' W 046°19'0 0.0
2014-Oct-10 13:32S 23°57' W 046°19'0 0.0
2014-Oct-10 12:32S 23°57' W 046°19'0 0.0
2014-Oct-10 11:32S 23°57' W 046°19'0 0.0
2014-Oct-10 10:32S 23°57' W 046°19'0 0.0
2014-Oct-10 09:32S 23°57' W 046°19'0 0.0
2014-Oct-10 08:26S 23°57' W 046°19'0 0.0
2014-Oct-10 07:32S 23°57' W 046°19'0 0.0
2014-Oct-10 06:26S 23°57' W 046°19'0 0.0
2014-Oct-10 05:32S 23°57' W 046°19'0 0.0
2014-Oct-10 04:32S 23°57' W 046°19'0 0.0
2014-Oct-10 03:32S 23°57' W 046°19'0 0.0
2014-Oct-10 02:32S 23°57' W 046°19'0 0.0
2014-Oct-10 01:32S 23°57' W 046°19'0 0.0
2014-Oct-10 00:32S 23°57' W 046°19'0 0.0
2014-Oct-09 23:32S 23°57' W 046°19'0 0.0
2014-Oct-09 22:32S 23°57' W 046°19'1 1.4
2014-Oct-09 21:33S 23°58' W 046°18'4 3.9
2014-Oct-09 20:33S 24°01' W 046°20'0 0.3
2014-Oct-09 19:33S 24°01' W 046°20'0 0.0
2014-Oct-09 18:27S 24°01' W 046°20'0 0.0
2014-Oct-09 17:33S 24°01' W 046°20'0 0.0
2014-Oct-09 16:33S 24°01' W 046°20'0 0.0
2014-Oct-09 15:33S 24°01' W 046°20'3 2.6
2014-Oct-09 14:33S 24°03' W 046°22'8 8.5
2014-Oct-09 13:33S 24°12' W 046°22'6 5.6
2014-Oct-09 12:29S 24°18' W 046°21'  

Dump ship's entire track history